Time;durP1;ratioP1;P1;durP2;ratioP2;P2;SDS_P1;SDS_P2;PMS_P1;PMS_P2;Temp;Humidity;BMP_temperature;BMP_pressure;BME280_temperature;BME280_humidity;BME280_pressure;Samples;Min_cycle;Max_cycle;Signal;HPM_P1;HPM_P2
2022/05/09 00:01:32;;;;;;;2.72;1.82;;;;;;;20.70;38.27;101339.05;1710953;83;21040;-73
2022/05/09 00:03:58;;;;;;;3.33;2.05;;;;;;;20.70;38.28;101342.37;1711249;83;21085;-73
2022/05/09 00:06:24;;;;;;;3.40;2.02;;;;;;;20.70;38.28;101347.91;1711146;83;20908;-73
2022/05/09 00:08:50;;;;;;;4.78;2.00;;;;;;;20.69;38.30;101344.32;1711329;83;21525;-72
2022/05/09 00:11:17;;;;;;;2.62;1.87;;;;;;;20.69;38.32;101349.84;1711373;83;21106;-72
2022/05/09 00:13:43;;;;;;;3.20;2.05;;;;;;;20.69;38.30;101351.80;1711408;83;21066;-73
2022/05/09 00:16:10;;;;;;;3.20;2.00;;;;;;;20.69;38.33;101348.47;1710809;83;21034;-74
2022/05/09 00:18:36;;;;;;;3.58;1.90;;;;;;;20.69;38.34;101345.70;1711292;83;21527;-73
2022/05/09 00:21:02;;;;;;;2.67;1.98;;;;;;;20.69;38.35;101342.11;1711338;83;21035;-73
2022/05/09 00:23:28;;;;;;;2.95;1.90;;;;;;;20.69;38.34;101344.32;1711041;83;21582;-73
2022/05/09 00:25:54;;;;;;;2.90;2.05;;;;;;;20.69;38.35;101346.27;1711063;83;21098;-73
2022/05/09 00:28:20;;;;;;;2.58;2.00;;;;;;;20.68;38.36;101352.34;1691109;83;21331;-73
2022/05/09 00:30:46;;;;;;;2.33;1.72;;;;;;;20.68;38.37;101345.44;1710939;83;21028;-74
2022/05/09 00:33:12;;;;;;;3.95;1.77;;;;;;;20.68;38.38;101353.73;1711347;83;21106;-74
2022/05/09 00:35:41;;;;;;;3.15;1.82;;;;;;;20.67;38.38;101339.64;1711189;83;21485;-73
2022/05/09 00:38:08;;;;;;;2.92;1.87;;;;;;;20.68;38.42;101344.61;1710671;83;21380;-74
2022/05/09 00:40:34;;;;;;;3.65;2.30;;;;;;;20.67;38.42;101344.34;1711467;83;21031;-73
2022/05/09 00:43:02;;;;;;;4.75;1.95;;;;;;;20.68;38.42;101355.67;1684129;83;21058;-73
2022/05/09 00:45:28;;;;;;;3.22;1.82;;;;;;;20.67;38.42;101351.26;1713677;83;21106;-73
2022/05/09 00:47:54;;;;;;;4.75;2.40;;;;;;;20.66;38.44;101357.38;1714284;83;21089;-73
2022/05/09 00:50:27;;;;;;;3.15;1.90;;;;;;;20.66;38.45;101358.77;1713616;83;21102;-73
2022/05/09 00:53:04;;;;;;;3.42;1.75;;;;;;;20.66;38.45;101355.17;1711068;83;21074;-74
2022/05/09 00:55:53;;;;;;;4.22;1.80;;;;;;;20.65;38.43;101355.73;1711255;83;21559;-73
2022/05/09 00:58:28;;;;;;;3.05;1.70;;;;;;;20.65;38.44;101355.73;1710931;83;21093;-73
2022/05/09 01:00:55;;;;;;;3.33;1.87;;;;;;;20.65;38.46;101356.29;1711250;83;22135;-73
2022/05/09 01:03:45;;;;;;;2.90;1.95;;;;;;;20.64;38.46;101351.32;1711133;83;21557;-73
2022/05/09 01:06:11;;;;;;;4.80;1.75;;;;;;;20.64;38.47;101354.64;1711226;83;21026;-72
2022/05/09 01:08:37;;;;;;;2.72;1.70;;;;;;;20.63;38.49;101359.34;1686425;83;22118;-73
2022/05/09 01:11:06;;;;;;;3.75;2.10;;;;;;;20.63;38.50;101357.97;1712825;83;21039;-73
2022/05/09 01:13:35;;;;;;;3.22;2.00;;;;;;;20.63;38.53;101353.82;1711145;83;21299;-73
2022/05/09 01:16:02;;;;;;;3.52;2.20;;;;;;;20.63;38.52;101353.82;1689395;83;21033;-74
2022/05/09 01:18:28;;;;;;;3.02;1.95;;;;;;;20.62;38.54;101353.59;1660862;83;21160;-74
2022/05/09 01:20:55;;;;;;;3.33;2.05;;;;;;;20.63;38.56;101353.00;1713141;83;21138;-74
2022/05/09 01:23:21;;;;;;;2.77;1.87;;;;;;;20.63;38.56;101346.08;1710930;83;21058;-73
2022/05/09 01:25:48;;;;;;;2.67;1.85;;;;;;;20.62;38.57;101346.67;1711065;83;21163;-73
2022/05/09 01:28:14;;;;;;;4.00;1.95;;;;;;;20.63;38.59;101337.79;1711179;83;21415;-75
2022/05/09 01:30:58;;;;;;;6.00;2.08;;;;;;;20.63;38.59;101337.79;1710803;83;21378;-74
2022/05/09 01:33:34;;;;;;;3.85;2.05;;;;;;;20.62;38.58;101341.14;1711329;83;21020;-73
2022/05/09 01:36:12;;;;;;;2.95;1.80;;;;;;;20.62;38.59;101344.47;1710813;83;21141;-72
2022/05/09 01:38:56;;;;;;;3.22;1.82;;;;;;;20.62;38.59;101347.23;1711194;83;21172;-75
2022/05/09 01:41:24;;;;;;;5.28;2.00;;;;;;;20.61;38.59;101345.03;1711227;83;21098;-74
2022/05/09 01:43:55;;;;;;;3.12;1.95;;;;;;;20.61;38.61;101341.44;1708064;82;21077;-74
2022/05/09 01:46:27;;;;;;;2.67;1.77;;;;;;;20.61;38.63;101345.03;1704109;83;21042;-74
2022/05/09 01:51:40;;;;;;;2.87;1.55;;;;;;;20.60;38.65;101349.47;1703712;83;21831;-72
2022/05/09 01:54:06;;;;;;;3.72;1.90;;;;;;;20.59;38.63;101340.91;1703701;83;21541;-72
2022/05/09 01:56:35;;;;;;;2.92;1.80;;;;;;;20.58;38.67;101344.23;1703932;84;21047;-72
2022/05/09 01:59:01;;;;;;;2.10;1.70;;;;;;;20.60;38.68;101341.17;1703482;83;21051;-74
2022/05/09 02:01:32;;;;;;;3.37;1.82;;;;;;;20.59;38.69;101342.29;1678317;83;21560;-73
2022/05/09 02:03:58;;;;;;;3.08;1.60;;;;;;;20.58;38.69;101342.85;1687241;85;21126;-73
2022/05/09 02:06:24;;;;;;;3.95;1.95;;;;;;;20.59;38.72;101346.44;1687554;83;21019;-73
2022/05/09 02:08:51;;;;;;;3.72;2.00;;;;;;;20.58;38.70;101335.94;1687621;83;21059;-74
2022/05/09 02:11:17;;;;;;;3.25;1.90;;;;;;;20.58;38.74;101342.85;1687772;85;21066;-73
2022/05/09 02:13:44;;;;;;;3.67;1.77;;;;;;;20.59;38.74;101345.87;1687842;84;21364;-74
2022/05/09 02:16:11;;;;;;;4.05;1.85;;;;;;;20.59;38.74;101345.05;1687650;83;21676;-73
2022/05/09 02:18:37;;;;;;;2.10;1.55;;;;;;;20.59;38.75;101349.20;1687976;83;20983;-74
2022/05/09 02:21:04;;;;;;;3.80;1.90;;;;;;;20.59;38.74;101354.17;1687936;83;21102;-75
2022/05/09 02:23:30;;;;;;;3.45;1.98;;;;;;;20.57;38.74;101352.30;1665830;85;21119;-73
2022/05/09 02:25:56;;;;;;;3.50;1.87;;;;;;;20.59;38.79;101349.20;1687514;83;21114;-74
2022/05/09 02:28:22;;;;;;;2.90;1.77;;;;;;;20.58;38.77;101355.29;1687625;83;21874;-74
2022/05/09 02:30:49;;;;;;;2.75;1.50;;;;;;;20.58;38.79;101363.58;1687866;83;21020;-72
2022/05/09 02:33:15;;;;;;;2.10;1.35;;;;;;;20.59;38.80;101353.34;1688285;85;21083;-73
2022/05/09 02:35:41;;;;;;;4.08;2.08;;;;;;;20.58;38.79;101355.29;1688047;85;21059;-74
2022/05/09 02:38:07;;;;;;;3.10;2.00;;;;;;;20.57;38.79;101360.59;1688150;84;21505;-73
2022/05/09 02:40:40;;;;;;;1.90;1.50;;;;;;;20.57;38.79;101353.67;1688292;84;21176;-72
2022/05/09 02:43:06;;;;;;;4.45;2.27;;;;;;;20.57;38.80;101361.97;1688459;83;20925;-74
2022/05/09 02:45:33;;;;;;;3.58;1.82;;;;;;;20.56;38.81;101360.32;1690414;83;21058;-73
2022/05/09 02:47:59;;;;;;;3.80;1.80;;;;;;;20.56;38.81;101363.64;1688173;84;21130;-72
2022/05/09 02:50:25;;;;;;;2.67;2.00;;;;;;;20.57;38.82;101366.67;1688344;84;21126;-74
2022/05/09 02:52:52;;;;;;;2.80;1.65;;;;;;;20.57;38.80;101363.34;1687713;83;21076;-73
2022/05/09 02:55:19;;;;;;;2.45;1.77;;;;;;;20.57;38.82;101363.91;1687869;83;20940;-73
2022/05/09 02:57:46;;;;;;;2.62;1.62;;;;;;;20.57;38.84;101366.11;1687962;84;21091;-73
2022/05/09 03:00:18;;;;;;;2.75;2.00;;;;;;;20.57;38.83;101363.34;1687726;83;21134;-73
2022/05/09 03:05:31;;;;;;;2.50;1.90;;;;;;;20.56;38.85;101366.41;1687489;83;22062;-73
2022/05/09 03:07:57;;;;;;;3.40;1.95;;;;;;;20.55;38.83;101361.99;1687906;84;21055;-74
2022/05/09 03:10:23;;;;;;;2.10;1.67;;;;;;;20.56;38.83;101366.41;1688102;83;21078;-73
2022/05/09 03:12:50;;;;;;;3.92;2.00;;;;;;;20.55;38.84;101372.49;1687671;83;21530;-73
2022/05/09 03:15:17;;;;;;;2.95;2.10;;;;;;;20.55;38.85;101368.34;1687873;83;21067;-74
2022/05/09 03:17:43;;;;;;;5.35;2.10;;;;;;;20.54;38.85;101361.17;1687976;85;21482;-75
2022/05/09 03:20:10;;;;;;;3.62;2.17;;;;;;;20.55;38.85;101362.81;1687501;83;21055;-73
2022/05/09 03:22:37;;;;;;;3.75;1.87;;;;;;;20.55;38.87;101369.73;1688069;84;21551;-74
2022/05/09 03:25:06;;;;;;;4.72;1.90;;;;;;;20.54;38.88;101373.61;1687837;83;21064;-75
2022/05/09 03:27:32;;;;;;;4.85;1.82;;;;;;;20.54;38.89;101367.28;1687729;84;21324;-73
2022/05/09 03:29:58;;;;;;;2.47;1.80;;;;;;;20.55;38.89;101375.81;1687998;84;21042;-75
2022/05/09 03:32:24;;;;;;;5.47;2.08;;;;;;;20.55;38.88;101378.02;1687941;84;21107;-73
2022/05/09 03:34:51;;;;;;;3.67;1.70;;;;;;;20.55;38.89;101379.41;1669688;84;21087;-72
2022/05/09 03:37:17;;;;;;;3.15;1.92;;;;;;;20.54;38.89;101381.11;1688100;83;21055;-73
2022/05/09 03:39:43;;;;;;;3.33;1.72;;;;;;;20.55;38.89;101379.41;1688051;83;21059;-74
2022/05/09 03:42:09;;;;;;;3.60;1.80;;;;;;;20.54;38.89;101378.34;1687521;83;21601;-75
2022/05/09 03:44:36;;;;;;;2.40;1.90;;;;;;;20.54;38.89;101390.20;1686113;83;21458;-73
2022/05/09 03:47:02;;;;;;;4.78;2.00;;;;;;;20.53;38.91;101387.20;1687643;83;21046;-74
2022/05/09 03:49:28;;;;;;;2.92;1.77;;;;;;;20.55;38.91;101386.88;1687872;84;21086;-74
2022/05/09 03:51:54;;;;;;;4.55;2.10;;;;;;;20.54;38.91;101392.17;1688067;83;21051;-73
2022/05/09 03:54:21;;;;;;;5.60;1.70;;;;;;;20.53;38.93;101389.95;1666288;85;22154;-73
2022/05/09 03:56:47;;;;;;;5.08;2.05;;;;;;;20.53;38.92;101391.34;1687566;85;21035;-73
2022/05/09 03:59:13;;;;;;;4.00;1.85;;;;;;;20.53;38.96;101392.72;1688113;83;21727;-73
2022/05/09 04:01:39;;;;;;;6.58;2.00;;;;;;;20.53;38.97;101399.63;1687981;83;21087;-74
2022/05/09 04:04:05;;;;;;;6.47;2.10;;;;;;;20.51;38.98;101392.19;1686525;83;21041;-73
2022/05/09 04:06:33;;;;;;;4.50;2.22;;;;;;;20.51;39.01;101395.78;1688762;83;21470;-73
2022/05/09 04:08:59;;;;;;;4.42;1.95;;;;;;;20.50;39.06;101397.45;1687748;83;21044;-75
2022/05/09 04:11:26;;;;;;;5.78;1.90;;;;;;;20.50;39.08;101396.07;1687536;83;21096;-74
2022/05/09 04:13:58;;;;;;;3.52;2.10;;;;;;;20.50;39.07;101397.45;1687663;83;21095;-76
2022/05/09 04:19:09;;;;;;;5.45;1.92;;;;;;;20.48;39.07;101399.72;1687513;83;21644;-74
2022/05/09 04:21:35;;;;;;;6.83;2.50;;;;;;;20.47;39.09;101401.66;1688591;84;21470;-74
2022/05/09 04:24:02;;;;;;;4.95;2.40;;;;;;;20.45;39.09;101396.98;1703371;83;21062;-74
2022/05/09 04:26:34;;;;;;;10.60;2.17;;;;;;;20.43;39.09;101399.23;1704270;83;21099;-73
2022/05/09 04:28:58;;;;;;;5.53;2.00;;;;;;;20.44;39.13;101401.45;1720341;82;21080;-73
2022/05/09 04:31:26;;;;;;;3.62;2.17;;;;;;;20.41;39.13;101404.23;1724459;81;21236;-73
2022/05/09 04:33:52;;;;;;;4.47;2.33;;;;;;;20.40;39.16;101410.91;1675167;84;21086;-74
2022/05/09 04:36:19;;;;;;;8.33;2.67;;;;;;;20.37;39.19;101409.28;1703966;82;21094;-75
2022/05/09 04:38:49;;;;;;;9.08;2.50;;;;;;;20.37;39.21;101413.42;1707672;82;22453;-73
2022/05/09 04:41:19;;;;;;;7.00;2.52;;;;;;;20.36;39.21;101415.40;1702688;83;21120;-77
2022/05/09 04:43:46;;;;;;;6.80;2.70;;;;;;;20.35;39.25;101411.54;1701793;82;21994;-78
2022/05/09 04:46:13;;;;;;;4.55;2.60;;;;;;;20.33;39.30;101412.39;1710682;82;21397;-77
2022/05/09 04:48:43;;;;;;;13.20;3.27;;;;;;;20.31;39.38;101414.65;1691856;83;21079;-75
2022/05/09 04:51:10;;;;;;;7.65;2.95;;;;;;;20.32;39.43;101416.30;1701522;83;21104;-79
2022/05/09 04:53:36;;;;;;;8.60;2.92;;;;;;;20.32;39.47;101415.73;1701110;82;21617;-79
2022/05/09 04:56:04;;;;;;;20.15;3.35;;;;;;;20.34;39.54;101414.86;1718378;82;21622;-79
2022/05/09 04:58:33;;;;;;;14.87;3.70;;;;;;;20.38;39.55;101421.42;1708418;82;21057;-77
2022/05/09 05:01:00;;;;;;;17.75;3.80;;;;;;;20.43;39.62;101423.28;1704055;83;21119;-76
2022/05/09 05:03:26;;;;;;;12.03;3.50;;;;;;;20.49;39.61;101419.33;1698197;82;21128;-81
2022/05/09 05:05:52;;;;;;;15.38;3.37;;;;;;;20.52;39.62;101427.02;1694969;83;21044;-80
2022/05/09 05:08:19;;;;;;;21.90;4.67;;;;;;;20.60;39.58;101422.73;1647566;84;21646;-80
2022/05/09 05:10:45;;;;;;;17.00;3.50;;;;;;;20.68;39.60;101422.86;1702791;82;21060;-80
2022/05/09 05:13:17;;;;;;;15.03;3.45;;;;;;;20.75;39.60;101419.72;1700262;83;21581;-79
2022/05/09 05:15:47;;;;;;;13.70;3.35;;;;;;;20.83;39.57;101428.13;1694190;82;21166;-81
2022/05/09 05:18:20;;;;;;;17.50;3.60;;;;;;;20.92;39.53;101430.43;1703655;82;21080;-80
2022/05/09 05:20:46;;;;;;;15.55;3.35;;;;;;;21.02;39.46;101423.07;1691144;82;21248;-80
2022/05/09 05:23:12;;;;;;;11.75;3.50;;;;;;;21.10;39.42;101426.51;1709319;82;21112;-80
2022/05/09 05:25:40;;;;;;;10.28;3.08;;;;;;;21.18;39.35;101429.98;1705038;82;21749;-81
2022/05/09 05:28:08;;;;;;;10.53;3.80;;;;;;;21.25;39.29;101428.47;1695590;82;21783;-80
2022/05/09 05:30:35;;;;;;;11.97;4.10;;;;;;;21.32;39.24;101428.88;1701843;82;21057;-80
2022/05/09 05:33:03;;;;;;;8.53;3.10;;;;;;;21.40;39.21;101428.15;1702956;82;21619;-79
2022/05/09 05:35:29;;;;;;;11.95;3.80;;;;;;;21.47;39.12;101433.85;1706848;82;21950;-81
2022/05/09 05:37:56;;;;;;;9.88;2.98;;;;;;;21.52;39.04;101437.88;1707433;82;21071;-79
2022/05/09 05:40:28;;;;;;;9.10;3.17;;;;;;;21.54;39.00;101437.84;1706834;82;21084;-79
2022/05/09 05:42:54;;;;;;;7.67;3.25;;;;;;;21.58;39.00;101441.62;1700888;82;21171;-79
2022/05/09 05:45:22;;;;;;;8.00;3.40;;;;;;;21.62;38.97;101441.27;1703662;82;21008;-80
2022/05/09 05:47:49;;;;;;;13.43;4.08;;;;;;;21.67;38.98;101446.70;1695236;82;21570;-77
2022/05/09 05:50:22;;;;;;;11.20;3.65;;;;;;;21.71;39.01;101440.80;1699631;82;21137;-82
2022/05/09 05:52:51;;;;;;;10.60;3.15;;;;;;;21.76;39.03;101449.56;1709708;82;21021;-76
2022/05/09 05:55:19;;;;;;;13.48;2.95;;;;;;;21.79;39.07;101455.30;1697148;83;21051;-76
2022/05/09 05:57:45;;;;;;;17.30;3.45;;;;;;;21.80;39.12;101450.02;1693706;82;21078;-75
2022/05/09 06:00:20;;;;;;;11.80;3.72;;;;;;;21.82;39.18;101451.90;1706368;82;21060;-75
2022/05/09 06:02:46;;;;;;;12.93;3.83;;;;;;;21.85;39.27;101449.09;1706966;82;21291;-73
2022/05/09 06:05:17;;;;;;;18.32;4.50;;;;;;;21.87;39.36;101448.20;1710614;82;21131;-76
2022/05/09 06:07:43;;;;;;;12.70;4.60;;;;;;;21.89;39.43;101451.50;1689979;82;21135;-76
2022/05/09 06:10:11;;;;;;;14.60;5.00;;;;;;;21.93;39.51;101455.88;1697277;82;21196;-78
2022/05/09 06:12:38;;;;;;;20.55;5.12;;;;;;;21.95;39.59;101459.96;1709012;82;21121;-76
2022/05/09 06:17:50;;;;;;;21.10;10.03;;;;;;;22.02;39.70;101468.69;1705364;82;21068;-75
2022/05/09 06:20:16;;;;;;;27.87;9.20;;;;;;;22.04;39.76;101464.20;1701945;82;21111;-76
2022/05/09 06:22:42;;;;;;;31.85;9.55;;;;;;;22.05;39.83;101464.47;1697350;82;21757;-78
2022/05/09 06:25:15;;;;;;;21.33;8.55;;;;;;;22.08;39.88;101467.42;1701022;82;21140;-77
2022/05/09 06:27:41;;;;;;;25.60;7.45;;;;;;;22.11;39.92;101460.43;1698016;82;21551;-75
2022/05/09 06:30:11;;;;;;;25.05;9.50;;;;;;;22.14;39.98;101465.37;1768548;77;123857;-87
2022/05/09 06:32:38;;;;;;;26.65;8.38;;;;;;;22.15;39.99;101464.25;1751586;80;21048;-85
2022/05/09 06:35:06;;;;;;;18.00;7.03;;;;;;;22.15;40.00;101467.02;1770328;80;22652;-84
2022/05/09 06:37:35;;;;;;;28.65;7.08;;;;;;;22.15;40.03;101473.35;1796716;77;21107;-85
2022/05/09 06:40:06;;;;;;;19.15;5.62;;;;;;;22.16;40.06;101471.41;1716406;80;21090;-86
2022/05/09 06:42:33;;;;;;;16.82;6.22;;;;;;;22.15;40.03;101466.42;1749233;80;21064;-85
2022/05/09 06:45:00;;;;;;;14.90;5.47;;;;;;;22.16;39.98;101472.23;1761175;80;21090;-86
2022/05/09 06:47:26;;;;;;;17.73;4.95;;;;;;;22.17;39.96;101469.72;1780409;78;21205;-85
2022/05/09 06:49:52;;;;;;;16.50;4.12;;;;;;;22.18;39.95;101468.59;1771442;80;21035;-84
2022/05/09 06:52:18;;;;;;;19.82;4.67;;;;;;;22.19;40.00;101466.05;1777113;79;22253;-84
2022/05/09 06:54:45;;;;;;;26.45;4.10;;;;;;;22.18;40.05;101471.36;1780623;79;21249;-85
2022/05/09 06:57:11;;;;;;;26.10;4.95;;;;;;;22.18;40.04;101468.59;1778513;78;21052;-85
2022/05/09 06:59:38;;;;;;;26.23;3.77;;;;;;;22.18;40.08;101474.70;1756406;79;21053;-84
2022/05/09 07:02:04;;;;;;;20.75;4.15;;;;;;;22.17;40.02;101464.73;1773467;79;21017;-85
2022/05/09 07:04:31;;;;;;;19.62;3.15;;;;;;;22.18;39.96;101461.66;1764971;78;21044;-87
2022/05/09 07:06:57;;;;;;;10.60;2.95;;;;;;;22.20;40.01;101459.38;1782674;78;21467;-87
2022/05/09 07:09:24;;;;;;;14.83;5.05;;;;;;;22.23;39.98;101465.71;1782116;78;21415;-88
2022/05/09 07:11:51;;;;;;;19.57;5.03;;;;;;;22.26;40.08;101464.25;1753802;80;21302;-89
2022/05/09 07:14:17;;;;;;;14.95;4.58;;;;;;;22.28;40.12;101465.56;1772652;78;21093;-88
2022/05/09 07:16:46;;;;;;;19.45;5.10;;;;;;;22.29;40.18;101470.55;1663209;80;126637;-75
2022/05/09 07:19:13;;;;;;;13.65;4.20;;;;;;;22.28;40.20;101469.72;1660452;84;21171;-76
2022/05/09 07:21:40;;;;;;;18.23;5.35;;;;;;;;;;1679048;83;21735;-74
2022/05/09 07:24:06;;;;;;;17.87;4.20;;;;;;;22.27;40.28;101470.05;1646575;84;22048;-76
2022/05/09 07:26:34;;;;;;;13.50;4.17;;;;;;;22.25;40.32;101471.74;1668276;83;21085;-77
2022/05/09 07:29:01;;;;;;;16.00;5.00;;;;;;;22.22;40.36;101468.22;1657944;83;22282;-77
2022/05/09 07:31:27;;;;;;;25.52;6.85;;;;;;;22.22;40.38;101467.39;1676030;83;21124;-74
2022/05/09 07:33:53;;;;;;;16.02;5.12;;;;;;;22.19;40.42;101470.20;1646251;84;21143;-77
2022/05/09 07:36:20;;;;;;;16.77;6.47;;;;;;;22.16;40.46;101470.84;1647126;85;21227;-77
2022/05/09 07:38:46;;;;;;;15.32;6.33;;;;;;;22.13;40.48;101471.48;1672130;83;21096;-77
2022/05/09 07:41:13;;;;;;;17.15;6.12;;;;;;;22.12;40.52;101477.31;1679699;83;21159;-79
2022/05/09 07:43:39;;;;;;;10.72;5.80;;;;;;;22.09;40.56;101474.62;1654954;85;21316;-77
2022/05/09 07:46:05;;;;;;;17.12;6.40;;;;;;;22.07;40.61;101471.88;1648843;83;21595;-79
2022/05/09 07:48:32;;;;;;;14.70;6.00;;;;;;;22.04;40.65;101471.95;1674684;82;21314;-78
2022/05/09 07:50:59;;;;;;;19.10;5.40;;;;;;;22.02;40.70;101473.41;1660474;84;21135;-77
2022/05/09 07:53:30;;;;;;;22.30;5.80;;;;;;;21.98;40.79;101474.57;1660876;81;21991;-77
2022/05/09 07:55:57;;;;;;;22.02;5.55;;;;;;;21.97;40.88;101476.28;1737859;80;21566;-77
2022/05/09 07:58:23;;;;;;;26.87;5.60;;;;;;;21.93;40.95;101469.16;1740011;80;21116;-78
2022/05/09 08:00:50;;;;;;;22.20;6.35;;;;;;;21.89;41.06;101475.05;1733608;81;21666;-81
2022/05/09 08:03:19;;;;;;;29.40;5.28;;;;;;;21.86;41.25;101476.46;1753897;80;21051;-77
2022/05/09 08:05:45;;;;;;;24.55;5.35;;;;;;;21.85;41.31;101474.81;1764364;78;21009;-77
2022/05/09 08:08:12;;;;;;;28.30;5.83;;;;;;;21.83;41.34;101478.48;1748362;79;21360;-78
2022/05/09 08:10:39;;;;;;;25.65;5.65;;;;;;;21.83;41.44;101479.04;1736335;80;21331;-76
2022/05/09 08:13:06;;;;;;;21.40;5.50;;;;;;;21.82;41.50;101478.22;1738591;80;20963;-77
2022/05/09 08:15:34;;;;;;;17.65;4.95;;;;;;;21.81;41.56;101479.34;1720899;80;20969;-77
2022/05/09 08:18:02;;;;;;;19.05;5.05;;;;;;;21.81;41.60;101477.95;1731584;81;21096;-83
2022/05/09 08:20:30;;;;;;;19.92;5.40;;;;;;;21.80;41.59;101475.52;1724742;81;21075;-81
2022/05/09 08:23:03;;;;;;;17.95;5.28;;;;;;;21.79;41.59;101478.02;1710504;81;21111;-81
2022/05/09 08:25:30;;;;;;;24.57;5.20;;;;;;;21.78;41.64;101474.98;1718568;81;21669;-79
2022/05/09 08:28:03;;;;;;;14.28;5.37;;;;;;;21.76;41.63;101485.01;1748644;80;21375;-78
2022/05/09 08:30:34;;;;;;;16.42;5.92;;;;;;;21.75;41.63;101481.98;1728454;81;21052;-81
2022/05/09 08:33:09;;;;;;;25.97;6.05;;;;;;;21.75;41.68;101475.61;1728947;81;21045;-81
2022/05/09 08:35:37;;;;;;;16.45;5.67;;;;;;;21.73;41.67;101477.86;1713318;81;37527;-78
2022/05/09 08:38:03;;;;;;;20.62;5.65;;;;;;;21.72;41.68;101481.78;1729268;81;21735;-80
2022/05/09 08:40:36;;;;;;;19.17;5.92;;;;;;;21.71;41.69;101483.73;1751599;80;21592;-81
2022/05/09 08:43:27;;;;;;;20.50;6.15;;;;;;;21.70;41.71;101482.08;1745031;80;21072;-84
2022/05/09 08:46:31;;;;;;;24.03;5.93;;;;;;;21.69;41.72;101477.66;1738135;80;21165;-79
2022/05/09 08:49:38;;;;;;;20.90;5.25;;;;;;;21.67;41.79;101478.55;1736969;80;22062;-78
2022/05/09 08:52:17;;;;;;;18.52;5.12;;;;;;;21.65;41.57;101481.35;1727353;80;21073;-82
2022/05/09 08:54:44;;;;;;;19.02;5.28;;;;;;;21.62;41.21;101479.20;1734814;80;21106;-80
2022/05/09 08:57:15;;;;;;;15.93;4.75;;;;;;;21.59;41.03;101475.68;1743118;80;21042;-78
2022/05/09 08:59:55;;;;;;;20.90;4.50;;;;;;;21.57;40.92;101477.92;1743788;80;21092;-78
2022/05/09 09:02:42;;;;;;;17.10;5.20;;;;;;;21.55;40.97;101478.25;1754131;79;21305;-79
2022/05/09 09:05:11;;;;;;;14.73;4.78;;;;;;;21.55;41.02;101476.87;1739865;81;22285;-78
2022/05/09 09:07:59;;;;;;;23.38;5.03;;;;;;;21.55;41.06;101471.33;1733165;80;21061;-79
2022/05/09 09:10:40;;;;;;;17.92;5.22;;;;;;;21.54;41.07;101475.78;1712179;82;21103;-78
2022/05/09 09:13:28;;;;;;;14.30;4.70;;;;;;;21.54;41.18;101472.45;1735337;80;21037;-79
2022/05/09 09:16:31;;;;;;;16.12;4.45;;;;;;;21.54;41.24;101475.22;1748761;80;21076;-78
2022/05/09 09:19:19;;;;;;;24.30;5.92;;;;;;;21.53;41.31;101474.13;1702987;81;21530;-78
2022/05/09 09:21:53;;;;;;;24.00;5.17;;;;;;;21.53;41.28;101478.28;1717173;81;21037;-78
2022/05/09 09:24:46;;;;;;;14.47;5.25;;;;;;;21.51;41.31;101476.41;1729384;81;21461;-79
2022/05/09 09:27:40;;;;;;;15.32;5.10;;;;;;;21.50;41.36;101478.91;1706019;82;21649;-79
2022/05/09 09:30:19;;;;;;;16.00;4.17;;;;;;;21.48;41.44;101472.28;1736479;81;21595;-79
2022/05/09 09:32:59;;;;;;;12.73;5.15;;;;;;;21.50;41.49;101469.22;1738924;80;21675;-80
2022/05/09 09:35:48;;;;;;;13.65;4.53;;;;;;;21.49;41.55;101468.39;1737430;81;21061;-79
2022/05/09 09:38:42;;;;;;;18.07;5.00;;;;;;;21.49;41.55;101468.95;1723726;81;21031;-78
2022/05/09 09:41:23;;;;;;;15.35;6.70;;;;;;;21.49;41.55;101465.62;1703995;83;21075;-80
2022/05/09 09:43:51;;;;;;;17.10;9.33;;;;;;;21.49;41.50;101463.42;1731082;82;21173;-81
2022/05/09 09:46:18;;;;;;;16.10;9.15;;;;;;;21.46;41.44;101467.63;1735276;80;21781;-82
2022/05/09 09:48:50;;;;;;;23.85;9.83;;;;;;;21.46;41.42;101470.96;1721700;82;21136;-80
2022/05/09 09:51:17;;;;;;;23.10;10.45;;;;;;;21.44;41.38;101464.34;1694601;82;20929;-77
2022/05/09 09:53:57;;;;;;;19.27;7.47;;;;;;;21.45;41.32;101464.60;1731603;79;21517;-78
2022/05/09 09:56:28;;;;;;;12.85;4.58;;;;;;;21.46;41.22;101461.27;1748900;80;21150;-80
2022/05/09 09:59:11;;;;;;;11.55;5.42;;;;;;;21.45;40.87;101458.23;1745504;80;21634;-79
2022/05/09 10:01:43;;;;;;;20.32;5.75;;;;;;;21.45;41.02;101463.22;1732888;80;21080;-79
2022/05/09 10:04:13;;;;;;;17.12;5.92;;;;;;;21.47;41.08;101462.36;1747005;79;21131;-79
2022/05/09 10:07:01;;;;;;;18.25;6.65;;;;;;;21.48;41.02;101465.92;1719818;81;22471;-80
2022/05/09 10:09:40;;;;;;;25.50;6.12;;;;;;;21.48;40.76;101459.83;1710676;81;21105;-79
2022/05/09 10:12:27;;;;;;;16.57;4.95;;;;;;;21.47;40.58;101458.20;1731247;81;21847;-78
2022/05/09 10:14:54;;;;;;;15.20;4.22;;;;;;;21.47;40.48;101466.52;1737334;80;21236;-77
2022/05/09 10:17:28;;;;;;;18.12;5.30;;;;;;;21.47;40.37;101456.83;1743354;80;21041;-77
2022/05/09 10:19:56;;;;;;;10.72;4.92;;;;;;;21.47;40.42;101458.20;1737404;80;21646;-77
2022/05/09 10:25:25;;;;;;;;;;;;;;;21.47;40.49;101458.20;1708819;81;21250;-79
2022/05/09 10:28:10;;;;;;;15.65;5.12;;;;;;;21.47;40.53;101456.83;1740343;81;20545;-78
2022/05/09 10:30:40;;;;;;;13.03;4.15;;;;;;;21.47;40.53;101450.47;1719183;80;21251;-78
2022/05/09 10:33:22;;;;;;;14.75;5.12;;;;;;;21.46;40.49;101449.64;1745905;80;21051;-77
2022/05/09 10:35:55;;;;;;;18.48;4.12;;;;;;;21.47;40.45;101444.92;1740582;81;21535;-79
2022/05/09 10:38:38;;;;;;;14.18;4.42;;;;;;;21.46;40.39;101447.43;1729841;82;22334;-77
2022/05/09 10:41:12;;;;;;;14.40;4.53;;;;;;;21.46;40.36;101439.12;1731616;80;21045;-80
2022/05/09 10:43:56;;;;;;;8.88;4.28;;;;;;;21.45;40.36;101447.16;1710449;82;21083;-78
2022/05/09 10:46:31;;;;;;;11.85;4.20;;;;;;;21.44;40.36;101438.04;1715697;83;21612;-79
2022/05/09 10:49:02;;;;;;;16.07;4.55;;;;;;;21.45;40.26;101445.22;1717420;82;21124;-78
2022/05/09 10:51:35;;;;;;;19.77;4.00;;;;;;;21.43;40.22;101439.75;1743014;80;21196;-79
2022/05/09 10:54:33;;;;;;;12.60;3.75;;;;;;;21.42;40.17;101438.92;1737641;80;21102;-79
2022/05/09 10:57:26;;;;;;;11.65;4.10;;;;;;;21.43;40.31;101442.75;1739692;80;21485;-82
2022/05/09 10:59:53;;;;;;;17.20;3.37;;;;;;;21.47;40.52;101438.00;1685999;82;21187;-82
2022/05/09 11:02:29;;;;;;;13.85;4.08;;;;;;;21.50;40.73;101441.53;1731443;80;21116;-78
2022/05/09 11:04:56;;;;;;;9.13;3.15;;;;;;;21.51;40.71;101431.55;1743308;81;21689;-81
2022/05/09 11:07:38;;;;;;;18.67;3.65;;;;;;;21.50;40.51;101432.66;1752257;81;21560;-79
2022/05/09 11:10:37;;;;;;;13.58;2.62;;;;;;;21.52;40.41;101430.39;1736604;81;21060;-79
2022/05/09 11:13:13;;;;;;;17.12;2.85;;;;;;;21.56;40.38;101430.03;1728273;81;22225;-79
2022/05/09 11:16:08;;;;;;;10.68;3.15;;;;;;;21.57;40.10;101433.06;1726754;81;20902;-79
2022/05/09 11:19:01;;;;;;;;;;;;;;;21.57;40.14;101432.23;1740820;81;21208;-78
2022/05/09 11:22:01;;;;;;;8.80;2.42;;;;;;;21.56;40.25;101426.44;1703874;81;20201;-78
2022/05/09 11:24:58;;;;;;;14.05;2.52;;;;;;;21.54;40.14;101419.02;1734296;82;21040;-78
2022/05/09 11:27:42;;;;;;;8.83;3.05;;;;;;;21.53;39.98;101425.67;1732540;82;21344;-77
2022/05/09 11:30:29;;;;;;;8.73;2.40;;;;;;;21.52;40.05;101422.64;1736138;81;21611;-77
2022/05/09 11:33:21;;;;;;;7.70;2.20;;;;;;;21.50;39.62;101415.23;1745288;81;21185;-78
2022/05/09 11:35:49;;;;;;;4.55;1.65;;;;;;;21.49;39.36;101417.17;1745198;80;21153;-79
2022/05/09 11:38:22;;;;;;;5.72;1.82;;;;;;;21.48;38.96;101419.68;1731419;81;21491;-78
2022/05/09 11:40:57;;;;;;;5.35;1.57;;;;;;;21.46;38.35;101417.80;1740547;80;21613;-76
2022/05/09 11:43:47;;;;;;;6.05;1.70;;;;;;;21.45;37.77;101412.56;1752819;80;21124;-78
2022/05/09 11:46:45;;;;;;;10.72;1.57;;;;;;;21.45;37.48;101415.33;1733198;82;21567;-77
2022/05/09 11:49:40;;;;;;;4.10;1.32;;;;;;;21.43;37.39;101411.47;1727693;81;21511;-78
2022/05/09 11:52:25;;;;;;;5.90;1.30;;;;;;;21.43;37.09;101404.55;1740086;81;21016;-81
2022/05/09 11:54:55;;;;;;;14.03;1.62;;;;;;;21.42;36.45;101407.09;1742096;81;21036;-80